sensor_id;sensor_type;location;lat;lon;timestamp;P1;durP1;ratioP1;P2;durP2;ratioP2
78889;SDS011;68279;48.964;14.502;2023-02-28T00:00:06;3.33;;;1.88;;
78889;SDS011;68279;48.964;14.502;2023-02-28T00:02:36;3.67;;;2.08;;
78889;SDS011;68279;48.964;14.502;2023-02-28T00:05:03;3.58;;;1.73;;
78889;SDS011;68279;48.964;14.502;2023-02-28T00:07:30;3.15;;;1.83;;
78889;SDS011;68279;48.964;14.502;2023-02-28T00:09:56;3.67;;;2.00;;
78889;SDS011;68279;48.964;14.502;2023-02-28T00:12:21;3.80;;;2.00;;
78889;SDS011;68279;48.964;14.502;2023-02-28T00:14:48;3.58;;;1.80;;
78889;SDS011;68279;48.964;14.502;2023-02-28T00:17:14;3.03;;;2.08;;
78889;SDS011;68279;48.964;14.502;2023-02-28T00:19:39;3.25;;;1.85;;
78889;SDS011;68279;48.964;14.502;2023-02-28T00:22:05;3.35;;;1.90;;
78889;SDS011;68279;48.964;14.502;2023-02-28T00:24:31;3.97;;;2.30;;
78889;SDS011;68279;48.964;14.502;2023-02-28T00:26:56;3.13;;;1.88;;
78889;SDS011;68279;48.964;14.502;2023-02-28T00:29:22;4.45;;;2.00;;
78889;SDS011;68279;48.964;14.502;2023-02-28T00:31:47;3.85;;;2.20;;
78889;SDS011;68279;48.964;14.502;2023-02-28T00:34:13;3.75;;;2.03;;
78889;SDS011;68279;48.964;14.502;2023-02-28T00:36:39;3.03;;;1.75;;
78889;SDS011;68279;48.964;14.502;2023-02-28T00:39:06;3.08;;;1.60;;
78889;SDS011;68279;48.964;14.502;2023-02-28T00:41:31;4.35;;;2.10;;
78889;SDS011;68279;48.964;14.502;2023-02-28T00:43:57;3.13;;;1.73;;
78889;SDS011;68279;48.964;14.502;2023-02-28T00:46:22;2.90;;;1.60;;
78889;SDS011;68279;48.964;14.502;2023-02-28T00:48:48;2.50;;;1.48;;
78889;SDS011;68279;48.964;14.502;2023-02-28T00:51:14;3.00;;;1.73;;
78889;SDS011;68279;48.964;14.502;2023-02-28T00:53:39;3.00;;;1.80;;
78889;SDS011;68279;48.964;14.502;2023-02-28T00:56:05;3.72;;;1.90;;
78889;SDS011;68279;48.964;14.502;2023-02-28T00:58:31;3.42;;;2.10;;
78889;SDS011;68279;48.964;14.502;2023-02-28T01:00:56;3.40;;;1.65;;
78889;SDS011;68279;48.964;14.502;2023-02-28T01:03:22;3.55;;;1.50;;
78889;SDS011;68279;48.964;14.502;2023-02-28T01:05:48;2.65;;;1.77;;
78889;SDS011;68279;48.964;14.502;2023-02-28T01:08:14;2.70;;;1.75;;
78889;SDS011;68279;48.964;14.502;2023-02-28T01:10:40;2.58;;;1.50;;
78889;SDS011;68279;48.964;14.502;2023-02-28T01:13:05;2.70;;;1.50;;
78889;SDS011;68279;48.964;14.502;2023-02-28T01:15:31;3.50;;;1.85;;
78889;SDS011;68279;48.964;14.502;2023-02-28T01:17:57;3.63;;;1.67;;
78889;SDS011;68279;48.964;14.502;2023-02-28T01:20:23;3.72;;;2.25;;
78889;SDS011;68279;48.964;14.502;2023-02-28T01:22:49;4.03;;;1.80;;
78889;SDS011;68279;48.964;14.502;2023-02-28T01:25:15;3.92;;;2.10;;
78889;SDS011;68279;48.964;14.502;2023-02-28T01:27:42;3.30;;;1.90;;
78889;SDS011;68279;48.964;14.502;2023-02-28T01:30:08;2.58;;;1.60;;
78889;SDS011;68279;48.964;14.502;2023-02-28T01:32:35;4.03;;;1.80;;
78889;SDS011;68279;48.964;14.502;2023-02-28T01:35:01;3.15;;;1.73;;
78889;SDS011;68279;48.964;14.502;2023-02-28T01:37:27;4.05;;;1.98;;
78889;SDS011;68279;48.964;14.502;2023-02-28T01:39:53;2.45;;;1.45;;
78889;SDS011;68279;48.964;14.502;2023-02-28T01:42:19;3.67;;;2.17;;
78889;SDS011;68279;48.964;14.502;2023-02-28T01:47:19;3.35;;;1.85;;
78889;SDS011;68279;48.964;14.502;2023-02-28T01:49:46;4.05;;;2.05;;
78889;SDS011;68279;48.964;14.502;2023-02-28T01:52:14;4.25;;;1.73;;
78889;SDS011;68279;48.964;14.502;2023-02-28T01:54:43;3.72;;;1.52;;
78889;SDS011;68279;48.964;14.502;2023-02-28T01:57:15;3.65;;;2.05;;
78889;SDS011;68279;48.964;14.502;2023-02-28T02:02:23;4.40;;;1.98;;
78889;SDS011;68279;48.964;14.502;2023-02-28T02:04:51;2.67;;;1.55;;
78889;SDS011;68279;48.964;14.502;2023-02-28T02:07:23;3.00;;;2.17;;
78889;SDS011;68279;48.964;14.502;2023-02-28T02:09:59;3.03;;;1.95;;
78889;SDS011;68279;48.964;14.502;2023-02-28T02:12:29;3.75;;;2.10;;
78889;SDS011;68279;48.964;14.502;2023-02-28T02:15:17;3.08;;;1.40;;
78889;SDS011;68279;48.964;14.502;2023-02-28T02:17:48;3.20;;;1.73;;
78889;SDS011;68279;48.964;14.502;2023-02-28T02:20:41;2.83;;;1.85;;
78889;SDS011;68279;48.964;14.502;2023-02-28T02:29:16;3.17;;;1.98;;
78889;SDS011;68279;48.964;14.502;2023-02-28T02:34:58;2.88;;;1.73;;
78889;SDS011;68279;48.964;14.502;2023-02-28T02:37:39;3.78;;;1.90;;
78889;SDS011;68279;48.964;14.502;2023-02-28T02:40:17;3.40;;;1.85;;
78889;SDS011;68279;48.964;14.502;2023-02-28T02:42:55;3.33;;;1.85;;
78889;SDS011;68279;48.964;14.502;2023-02-28T02:45:28;3.22;;;1.88;;
78889;SDS011;68279;48.964;14.502;2023-02-28T02:48:01;4.18;;;2.00;;
78889;SDS011;68279;48.964;14.502;2023-02-28T02:50:33;3.17;;;1.80;;
78889;SDS011;68279;48.964;14.502;2023-02-28T02:53:03;3.28;;;1.73;;
78889;SDS011;68279;48.964;14.502;2023-02-28T02:55:31;3.92;;;1.58;;
78889;SDS011;68279;48.964;14.502;2023-02-28T02:58:02;2.75;;;1.45;;
78889;SDS011;68279;48.964;14.502;2023-02-28T03:00:34;3.08;;;1.75;;
78889;SDS011;68279;48.964;14.502;2023-02-28T03:03:04;2.65;;;1.33;;
78889;SDS011;68279;48.964;14.502;2023-02-28T03:05:53;3.03;;;1.83;;
78889;SDS011;68279;48.964;14.502;2023-02-28T03:08:17;2.78;;;1.55;;
78889;SDS011;68279;48.964;14.502;2023-02-28T03:10:44;4.03;;;1.92;;
78889;SDS011;68279;48.964;14.502;2023-02-28T03:15:53;3.17;;;1.60;;
78889;SDS011;68279;48.964;14.502;2023-02-28T03:21:06;3.20;;;1.77;;
78889;SDS011;68279;48.964;14.502;2023-02-28T03:23:45;3.63;;;2.38;;
78889;SDS011;68279;48.964;14.502;2023-02-28T03:26:34;3.28;;;1.95;;
78889;SDS011;68279;48.964;14.502;2023-02-28T03:29:13;2.88;;;1.60;;
78889;SDS011;68279;48.964;14.502;2023-02-28T03:32:22;2.65;;;1.38;;
78889;SDS011;68279;48.964;14.502;2023-02-28T03:35:09;2.55;;;1.63;;
78889;SDS011;68279;48.964;14.502;2023-02-28T03:38:00;3.20;;;2.03;;
78889;SDS011;68279;48.964;14.502;2023-02-28T03:40:33;3.47;;;1.65;;
78889;SDS011;68279;48.964;14.502;2023-02-28T03:43:03;2.55;;;1.85;;
78889;SDS011;68279;48.964;14.502;2023-02-28T03:45:36;2.92;;;1.85;;
78889;SDS011;68279;48.964;14.502;2023-02-28T03:50:44;3.50;;;1.98;;
78889;SDS011;68279;48.964;14.502;2023-02-28T03:53:14;2.70;;;1.98;;
78889;SDS011;68279;48.964;14.502;2023-02-28T03:55:47;2.90;;;1.92;;
78889;SDS011;68279;48.964;14.502;2023-02-28T04:00:53;4.60;;;1.92;;
78889;SDS011;68279;48.964;14.502;2023-02-28T04:03:24;3.95;;;2.22;;
78889;SDS011;68279;48.964;14.502;2023-02-28T04:05:53;3.10;;;1.70;;
78889;SDS011;68279;48.964;14.502;2023-02-28T04:08:21;2.85;;;1.52;;
78889;SDS011;68279;48.964;14.502;2023-02-28T04:10:53;3.53;;;2.00;;
78889;SDS011;68279;48.964;14.502;2023-02-28T04:13:23;3.05;;;1.80;;
78889;SDS011;68279;48.964;14.502;2023-02-28T04:15:49;3.17;;;1.40;;
78889;SDS011;68279;48.964;14.502;2023-02-28T04:18:14;2.40;;;1.25;;
78889;SDS011;68279;48.964;14.502;2023-02-28T04:20:40;3.92;;;2.10;;
78889;SDS011;68279;48.964;14.502;2023-02-28T04:23:05;3.33;;;1.90;;
78889;SDS011;68279;48.964;14.502;2023-02-28T04:25:31;3.92;;;2.33;;
78889;SDS011;68279;48.964;14.502;2023-02-28T04:27:57;2.95;;;1.63;;
78889;SDS011;68279;48.964;14.502;2023-02-28T04:30:22;3.30;;;1.77;;
78889;SDS011;68279;48.964;14.502;2023-02-28T04:32:48;3.13;;;1.95;;
78889;SDS011;68279;48.964;14.502;2023-02-28T04:35:13;3.30;;;1.95;;
78889;SDS011;68279;48.964;14.502;2023-02-28T04:37:39;2.72;;;1.60;;
78889;SDS011;68279;48.964;14.502;2023-02-28T04:40:05;3.00;;;1.80;;
78889;SDS011;68279;48.964;14.502;2023-02-28T04:42:31;3.00;;;2.15;;
78889;SDS011;68279;48.964;14.502;2023-02-28T04:45:01;3.58;;;1.88;;
78889;SDS011;68279;48.964;14.502;2023-02-28T04:47:28;3.17;;;1.85;;
78889;SDS011;68279;48.964;14.502;2023-02-28T04:49:53;3.00;;;1.60;;
78889;SDS011;68279;48.964;14.502;2023-02-28T04:52:19;3.67;;;2.22;;
78889;SDS011;68279;48.964;14.502;2023-02-28T04:54:45;3.25;;;1.67;;
78889;SDS011;68279;48.964;14.502;2023-02-28T04:57:10;2.92;;;1.52;;
78889;SDS011;68279;48.964;14.502;2023-02-28T04:59:36;2.95;;;1.80;;
78889;SDS011;68279;48.964;14.502;2023-02-28T05:02:19;3.25;;;2.10;;
78889;SDS011;68279;48.964;14.502;2023-02-28T05:04:46;3.30;;;1.65;;
78889;SDS011;68279;48.964;14.502;2023-02-28T05:07:11;3.83;;;1.92;;
78889;SDS011;68279;48.964;14.502;2023-02-28T05:09:37;3.33;;;1.83;;
78889;SDS011;68279;48.964;14.502;2023-02-28T05:12:03;2.75;;;2.05;;
78889;SDS011;68279;48.964;14.502;2023-02-28T05:14:28;2.88;;;1.60;;
78889;SDS011;68279;48.964;14.502;2023-02-28T05:16:54;3.00;;;1.73;;
78889;SDS011;68279;48.964;14.502;2023-02-28T05:19:19;3.00;;;1.80;;
78889;SDS011;68279;48.964;14.502;2023-02-28T05:21:53;3.20;;;2.05;;
78889;SDS011;68279;48.964;14.502;2023-02-28T05:24:20;3.30;;;2.08;;
78889;SDS011;68279;48.964;14.502;2023-02-28T05:26:48;4.03;;;2.33;;
78889;SDS011;68279;48.964;14.502;2023-02-28T05:29:16;3.10;;;1.83;;
78889;SDS011;68279;48.964;14.502;2023-02-28T06:08:44;2.90;;;2.03;;
78889;SDS011;68279;48.964;14.502;2023-02-28T06:11:11;2.90;;;1.95;;
78889;SDS011;68279;48.964;14.502;2023-02-28T06:13:37;2.85;;;1.65;;
78889;SDS011;68279;48.964;14.502;2023-02-28T06:16:03;3.17;;;1.90;;
78889;SDS011;68279;48.964;14.502;2023-02-28T06:18:29;4.63;;;2.55;;
78889;SDS011;68279;48.964;14.502;2023-02-28T06:20:54;6.55;;;3.00;;
78889;SDS011;68279;48.964;14.502;2023-02-28T06:23:21;3.38;;;2.15;;
78889;SDS011;68279;48.964;14.502;2023-02-28T06:25:47;3.97;;;2.35;;
78889;SDS011;68279;48.964;14.502;2023-02-28T06:28:15;4.28;;;2.22;;
78889;SDS011;68279;48.964;14.502;2023-02-28T06:30:42;3.88;;;2.45;;
78889;SDS011;68279;48.964;14.502;2023-02-28T06:33:08;4.18;;;2.13;;
78889;SDS011;68279;48.964;14.502;2023-02-28T06:35:35;2.83;;;1.92;;
78889;SDS011;68279;48.964;14.502;2023-02-28T16:45:31;11.48;;;3.53;;
78889;SDS011;68279;48.964;14.502;2023-02-28T16:47:58;10.68;;;5.55;;
78889;SDS011;68279;48.964;14.502;2023-02-28T16:50:27;12.27;;;5.28;;
78889;SDS011;68279;48.964;14.502;2023-02-28T16:52:55;11.55;;;4.90;;
78889;SDS011;68279;48.964;14.502;2023-02-28T16:55:22;10.15;;;4.63;;
78889;SDS011;68279;48.964;14.502;2023-02-28T16:57:52;10.07;;;5.38;;
78889;SDS011;68279;48.964;14.502;2023-02-28T17:00:20;12.00;;;5.35;;
78889;SDS011;68279;48.964;14.502;2023-02-28T17:02:47;9.45;;;5.20;;
78889;SDS011;68279;48.964;14.502;2023-02-28T17:05:13;10.27;;;5.03;;
78889;SDS011;68279;48.964;14.502;2023-02-28T17:07:40;7.80;;;4.55;;
78889;SDS011;68279;48.964;14.502;2023-02-28T17:10:20;8.70;;;4.93;;
78889;SDS011;68279;48.964;14.502;2023-02-28T17:12:50;12.68;;;6.30;;
78889;SDS011;68279;48.964;14.502;2023-02-28T17:15:17;10.15;;;5.38;;
78889;SDS011;68279;48.964;14.502;2023-02-28T17:17:44;10.23;;;5.28;;
78889;SDS011;68279;48.964;14.502;2023-02-28T17:20:14;10.75;;;5.25;;
78889;SDS011;68279;48.964;14.502;2023-02-28T17:22:43;9.15;;;4.63;;
78889;SDS011;68279;48.964;14.502;2023-02-28T17:25:08;8.75;;;4.40;;
78889;SDS011;68279;48.964;14.502;2023-02-28T17:27:35;11.63;;;5.53;;
78889;SDS011;68279;48.964;14.502;2023-02-28T17:30:03;14.55;;;6.25;;
78889;SDS011;68279;48.964;14.502;2023-02-28T17:32:38;14.98;;;6.75;;
78889;SDS011;68279;48.964;14.502;2023-02-28T17:35:04;10.32;;;6.05;;
78889;SDS011;68279;48.964;14.502;2023-02-28T17:37:30;12.35;;;6.60;;
78889;SDS011;68279;48.964;14.502;2023-02-28T17:39:55;14.95;;;7.95;;
78889;SDS011;68279;48.964;14.502;2023-02-28T17:42:21;13.32;;;7.25;;
78889;SDS011;68279;48.964;14.502;2023-02-28T17:44:47;10.50;;;6.57;;
78889;SDS011;68279;48.964;14.502;2023-02-28T17:47:13;14.38;;;6.93;;
78889;SDS011;68279;48.964;14.502;2023-02-28T17:49:39;8.70;;;4.95;;
78889;SDS011;68279;48.964;14.502;2023-02-28T17:52:04;12.00;;;6.57;;
78889;SDS011;68279;48.964;14.502;2023-02-28T17:54:30;10.20;;;6.22;;
78889;SDS011;68279;48.964;14.502;2023-02-28T17:56:56;10.68;;;6.38;;
78889;SDS011;68279;48.964;14.502;2023-02-28T17:59:22;14.25;;;8.45;;
78889;SDS011;68279;48.964;14.502;2023-02-28T18:01:47;13.60;;;8.77;;
78889;SDS011;68279;48.964;14.502;2023-02-28T18:04:13;11.38;;;6.50;;
78889;SDS011;68279;48.964;14.502;2023-02-28T18:06:42;16.60;;;8.85;;
78889;SDS011;68279;48.964;14.502;2023-02-28T18:09:16;14.82;;;8.07;;
78889;SDS011;68279;48.964;14.502;2023-02-28T18:11:44;17.48;;;9.95;;
78889;SDS011;68279;48.964;14.502;2023-02-28T18:14:16;18.10;;;10.60;;
78889;SDS011;68279;48.964;14.502;2023-02-28T18:16:43;18.20;;;10.52;;
78889;SDS011;68279;48.964;14.502;2023-02-28T18:19:09;16.65;;;9.18;;
78889;SDS011;68279;48.964;14.502;2023-02-28T18:21:49;22.50;;;10.70;;
78889;SDS011;68279;48.964;14.502;2023-02-28T18:24:16;16.42;;;9.00;;
78889;SDS011;68279;48.964;14.502;2023-02-28T18:26:43;23.75;;;11.75;;
78889;SDS011;68279;48.964;14.502;2023-02-28T18:29:15;22.45;;;12.93;;
78889;SDS011;68279;48.964;14.502;2023-02-28T18:31:46;22.85;;;11.43;;
78889;SDS011;68279;48.964;14.502;2023-02-28T18:34:12;28.52;;;13.23;;
78889;SDS011;68279;48.964;14.502;2023-02-28T18:36:39;25.42;;;14.05;;
78889;SDS011;68279;48.964;14.502;2023-02-28T18:39:07;28.23;;;14.90;;
78889;SDS011;68279;48.964;14.502;2023-02-28T18:41:33;28.85;;;13.63;;
78889;SDS011;68279;48.964;14.502;2023-02-28T18:43:59;28.13;;;14.73;;
78889;SDS011;68279;48.964;14.502;2023-02-28T18:46:27;27.15;;;12.40;;
78889;SDS011;68279;48.964;14.502;2023-02-28T18:48:52;21.83;;;11.60;;
78889;SDS011;68279;48.964;14.502;2023-02-28T18:51:20;24.63;;;15.15;;
78889;SDS011;68279;48.964;14.502;2023-02-28T18:53:47;23.05;;;13.38;;
78889;SDS011;68279;48.964;14.502;2023-02-28T18:56:14;32.22;;;16.00;;
78889;SDS011;68279;48.964;14.502;2023-02-28T18:58:42;23.17;;;13.80;;
78889;SDS011;68279;48.964;14.502;2023-02-28T19:01:19;59.17;;;25.85;;
78889;SDS011;68279;48.964;14.502;2023-02-28T19:03:47;47.45;;;21.13;;
78889;SDS011;68279;48.964;14.502;2023-02-28T19:06:14;40.85;;;19.48;;
78889;SDS011;68279;48.964;14.502;2023-02-28T19:08:41;32.85;;;17.63;;
78889;SDS011;68279;48.964;14.502;2023-02-28T19:11:17;38.47;;;22.33;;
78889;SDS011;68279;48.964;14.502;2023-02-28T19:13:43;35.03;;;19.27;;
78889;SDS011;68279;48.964;14.502;2023-02-28T19:16:10;32.58;;;18.02;;
78889;SDS011;68279;48.964;14.502;2023-02-28T19:18:37;32.42;;;17.40;;
78889;SDS011;68279;48.964;14.502;2023-02-28T19:21:07;38.85;;;22.20;;
78889;SDS011;68279;48.964;14.502;2023-02-28T19:23:35;26.38;;;15.18;;
78889;SDS011;68279;48.964;14.502;2023-02-28T19:26:04;31.00;;;15.15;;
78889;SDS011;68279;48.964;14.502;2023-02-28T19:28:34;21.17;;;12.98;;
78889;SDS011;68279;48.964;14.502;2023-02-28T19:31:00;34.45;;;19.80;;
78889;SDS011;68279;48.964;14.502;2023-02-28T19:33:26;40.03;;;20.52;;
78889;SDS011;68279;48.964;14.502;2023-02-28T19:35:51;43.17;;;24.85;;
78889;SDS011;68279;48.964;14.502;2023-02-28T19:38:17;42.20;;;23.83;;
78889;SDS011;68279;48.964;14.502;2023-02-28T19:40:43;40.38;;;20.23;;
78889;SDS011;68279;48.964;14.502;2023-02-28T19:43:08;37.85;;;20.38;;
78889;SDS011;68279;48.964;14.502;2023-02-28T19:45:35;53.25;;;25.67;;
78889;SDS011;68279;48.964;14.502;2023-02-28T19:48:02;30.67;;;17.20;;
78889;SDS011;68279;48.964;14.502;2023-02-28T19:50:28;26.98;;;14.02;;
78889;SDS011;68279;48.964;14.502;2023-02-28T19:52:55;32.03;;;17.30;;
78889;SDS011;68279;48.964;14.502;2023-02-28T19:55:20;26.80;;;13.90;;
78889;SDS011;68279;48.964;14.502;2023-02-28T19:57:46;31.98;;;19.17;;
78889;SDS011;68279;48.964;14.502;2023-02-28T20:00:13;33.38;;;16.60;;
78889;SDS011;68279;48.964;14.502;2023-02-28T20:02:40;48.13;;;24.48;;
78889;SDS011;68279;48.964;14.502;2023-02-28T20:05:07;38.13;;;17.63;;
78889;SDS011;68279;48.964;14.502;2023-02-28T20:07:44;32.00;;;18.88;;
78889;SDS011;68279;48.964;14.502;2023-02-28T20:10:10;33.38;;;16.27;;
78889;SDS011;68279;48.964;14.502;2023-02-28T20:12:40;28.27;;;16.27;;
78889;SDS011;68279;48.964;14.502;2023-02-28T20:15:06;25.88;;;13.65;;
78889;SDS011;68279;48.964;14.502;2023-02-28T20:17:33;34.65;;;19.42;;
78889;SDS011;68279;48.964;14.502;2023-02-28T20:19:59;30.50;;;18.30;;
78889;SDS011;68279;48.964;14.502;2023-02-28T20:22:25;29.75;;;17.35;;
78889;SDS011;68279;48.964;14.502;2023-02-28T20:24:51;33.30;;;19.13;;
78889;SDS011;68279;48.964;14.502;2023-02-28T20:27:18;32.05;;;17.73;;
78889;SDS011;68279;48.964;14.502;2023-02-28T20:29:43;30.88;;;18.30;;
78889;SDS011;68279;48.964;14.502;2023-02-28T20:32:09;30.65;;;16.15;;
78889;SDS011;68279;48.964;14.502;2023-02-28T20:34:34;34.72;;;17.05;;
78889;SDS011;68279;48.964;14.502;2023-02-28T20:37:00;36.30;;;19.15;;
78889;SDS011;68279;48.964;14.502;2023-02-28T20:39:26;31.35;;;16.65;;
78889;SDS011;68279;48.964;14.502;2023-02-28T20:41:51;27.92;;;16.27;;
78889;SDS011;68279;48.964;14.502;2023-02-28T20:44:18;27.95;;;17.20;;
78889;SDS011;68279;48.964;14.502;2023-02-28T20:46:43;22.77;;;16.30;;
78889;SDS011;68279;48.964;14.502;2023-02-28T20:49:10;28.08;;;16.98;;
78889;SDS011;68279;48.964;14.502;2023-02-28T20:51:36;25.52;;;13.10;;
78889;SDS011;68279;48.964;14.502;2023-02-28T20:54:05;24.70;;;15.40;;
78889;SDS011;68279;48.964;14.502;2023-02-28T20:56:31;26.90;;;15.63;;
78889;SDS011;68279;48.964;14.502;2023-02-28T20:58:57;27.35;;;15.32;;
78889;SDS011;68279;48.964;14.502;2023-02-28T21:01:26;17.00;;;11.10;;
78889;SDS011;68279;48.964;14.502;2023-02-28T21:03:57;25.73;;;15.18;;
78889;SDS011;68279;48.964;14.502;2023-02-28T21:06:25;25.92;;;17.20;;
78889;SDS011;68279;48.964;14.502;2023-02-28T21:08:54;25.48;;;14.15;;
78889;SDS011;68279;48.964;14.502;2023-02-28T21:11:22;29.10;;;15.85;;
78889;SDS011;68279;48.964;14.502;2023-02-28T21:13:49;26.52;;;14.95;;
78889;SDS011;68279;48.964;14.502;2023-02-28T21:16:16;24.08;;;13.68;;
78889;SDS011;68279;48.964;14.502;2023-02-28T21:18:45;23.10;;;13.20;;
78889;SDS011;68279;48.964;14.502;2023-02-28T21:21:12;27.35;;;14.85;;
78889;SDS011;68279;48.964;14.502;2023-02-28T21:23:40;29.90;;;16.50;;
78889;SDS011;68279;48.964;14.502;2023-02-28T21:26:08;27.73;;;15.15;;
78889;SDS011;68279;48.964;14.502;2023-02-28T21:28:37;30.23;;;17.23;;
78889;SDS011;68279;48.964;14.502;2023-02-28T21:31:09;30.85;;;17.70;;
78889;SDS011;68279;48.964;14.502;2023-02-28T21:33:39;21.27;;;13.77;;
78889;SDS011;68279;48.964;14.502;2023-02-28T21:36:07;22.45;;;13.68;;
78889;SDS011;68279;48.964;14.502;2023-02-28T21:38:35;26.27;;;14.63;;
78889;SDS011;68279;48.964;14.502;2023-02-28T21:41:12;23.17;;;13.63;;
78889;SDS011;68279;48.964;14.502;2023-02-28T21:43:39;22.48;;;14.55;;
78889;SDS011;68279;48.964;14.502;2023-02-28T21:46:10;22.25;;;13.40;;
78889;SDS011;68279;48.964;14.502;2023-02-28T21:48:37;27.48;;;14.80;;
78889;SDS011;68279;48.964;14.502;2023-02-28T21:51:08;22.70;;;12.43;;
78889;SDS011;68279;48.964;14.502;2023-02-28T21:53:36;25.38;;;12.73;;
78889;SDS011;68279;48.964;14.502;2023-02-28T21:56:04;25.70;;;15.45;;
78889;SDS011;68279;48.964;14.502;2023-02-28T21:58:41;25.60;;;15.13;;
78889;SDS011;68279;48.964;14.502;2023-02-28T22:01:08;22.63;;;12.20;;
78889;SDS011;68279;48.964;14.502;2023-02-28T22:03:36;28.25;;;15.82;;
78889;SDS011;68279;48.964;14.502;2023-02-28T22:06:09;28.15;;;14.25;;
78889;SDS011;68279;48.964;14.502;2023-02-28T22:08:37;23.52;;;14.65;;
78889;SDS011;68279;48.964;14.502;2023-02-28T22:11:04;27.33;;;14.80;;
78889;SDS011;68279;48.964;14.502;2023-02-28T22:13:31;29.02;;;15.40;;
78889;SDS011;68279;48.964;14.502;2023-02-28T22:16:04;26.92;;;13.55;;
78889;SDS011;68279;48.964;14.502;2023-02-28T22:18:37;24.20;;;13.25;;
78889;SDS011;68279;48.964;14.502;2023-02-28T22:21:05;20.10;;;10.60;;
78889;SDS011;68279;48.964;14.502;2023-02-28T22:23:32;18.45;;;11.70;;
78889;SDS011;68279;48.964;14.502;2023-02-28T22:26:00;22.85;;;11.07;;
78889;SDS011;68279;48.964;14.502;2023-02-28T22:28:27;18.85;;;11.00;;
78889;SDS011;68279;48.964;14.502;2023-02-28T22:30:56;14.60;;;9.82;;
78889;SDS011;68279;48.964;14.502;2023-02-28T22:33:23;18.80;;;10.15;;
78889;SDS011;68279;48.964;14.502;2023-02-28T22:35:50;17.92;;;10.73;;
78889;SDS011;68279;48.964;14.502;2023-02-28T22:38:16;15.82;;;8.85;;
78889;SDS011;68279;48.964;14.502;2023-02-28T22:40:42;28.52;;;12.10;;
78889;SDS011;68279;48.964;14.502;2023-02-28T22:43:08;21.35;;;9.50;;
78889;SDS011;68279;48.964;14.502;2023-02-28T22:45:37;16.45;;;8.95;;
78889;SDS011;68279;48.964;14.502;2023-02-28T22:48:05;18.88;;;10.98;;
78889;SDS011;68279;48.964;14.502;2023-02-28T22:50:32;19.35;;;10.73;;
78889;SDS011;68279;48.964;14.502;2023-02-28T22:52:58;16.40;;;9.32;;
78889;SDS011;68279;48.964;14.502;2023-02-28T22:55:24;17.60;;;8.75;;
78889;SDS011;68279;48.964;14.502;2023-02-28T22:57:52;17.85;;;10.77;;
78889;SDS011;68279;48.964;14.502;2023-02-28T23:00:18;20.42;;;10.90;;
78889;SDS011;68279;48.964;14.502;2023-02-28T23:02:44;16.35;;;11.02;;
78889;SDS011;68279;48.964;14.502;2023-02-28T23:05:12;21.40;;;11.27;;
78889;SDS011;68279;48.964;14.502;2023-02-28T23:07:38;18.20;;;11.13;;
78889;SDS011;68279;48.964;14.502;2023-02-28T23:10:06;17.17;;;10.38;;
78889;SDS011;68279;48.964;14.502;2023-02-28T23:12:33;16.92;;;8.90;;
78889;SDS011;68279;48.964;14.502;2023-02-28T23:14:58;21.23;;;10.50;;
78889;SDS011;68279;48.964;14.502;2023-02-28T23:17:24;18.55;;;9.77;;
78889;SDS011;68279;48.964;14.502;2023-02-28T23:19:50;19.98;;;12.40;;
78889;SDS011;68279;48.964;14.502;2023-02-28T23:22:16;18.23;;;11.13;;
78889;SDS011;68279;48.964;14.502;2023-02-28T23:24:41;20.08;;;11.02;;
78889;SDS011;68279;48.964;14.502;2023-02-28T23:27:07;20.63;;;11.20;;
78889;SDS011;68279;48.964;14.502;2023-02-28T23:29:33;18.30;;;10.63;;
78889;SDS011;68279;48.964;14.502;2023-02-28T23:31:59;19.48;;;10.75;;
78889;SDS011;68279;48.964;14.502;2023-02-28T23:34:25;15.82;;;8.85;;
78889;SDS011;68279;48.964;14.502;2023-02-28T23:36:52;16.08;;;9.98;;
78889;SDS011;68279;48.964;14.502;2023-02-28T23:39:19;22.55;;;10.73;;
78889;SDS011;68279;48.964;14.502;2023-02-28T23:41:46;18.77;;;9.77;;
78889;SDS011;68279;48.964;14.502;2023-02-28T23:44:11;20.48;;;11.25;;
78889;SDS011;68279;48.964;14.502;2023-02-28T23:46:44;28.33;;;14.63;;
78889;SDS011;68279;48.964;14.502;2023-02-28T23:49:11;21.58;;;12.50;;
78889;SDS011;68279;48.964;14.502;2023-02-28T23:51:37;20.27;;;13.32;;
78889;SDS011;68279;48.964;14.502;2023-02-28T23:54:02;22.27;;;12.35;;
78889;SDS011;68279;48.964;14.502;2023-02-28T23:56:30;25.42;;;13.43;;
78889;SDS011;68279;48.964;14.502;2023-02-28T23:58:56;21.92;;;13.07;;
